| Date | Time | Temp. (oF) | Dew Point (oF) | Rel. Hum. (%) | Press. (in.) | Wind Dir. | Wind Speed (mph) | Hourly Rainfall (in.) |
|
|---|---|---|---|---|---|---|---|---|---|
| 1 | 12/22 | 00:00 | 26 | 23 | 90 | 30.15 | WNW | 0 | 0.00 |
| 2 | 12/21 | 23:00 | 27 | 23 | 87 | 30.18 | WNW | 0 | 0.00 |
| 3 | 12/21 | 22:00 | 29 | 23 | 80 | 30.19 | WNW | 0 | 0.00 |
| 4 | 12/21 | 21:00 | 30 | 23 | 76 | 30.20 | WNW | 0 | 0.00 |
| 5 | 12/21 | 20:00 | 32 | 23 | 70 | 30.23 | WNW | 0 | 0.00 |
| 6 | 12/21 | 19:00 | 33 | 23 | 67 | 30.23 | WNW | 2 | 0.00 |
| 7 | 12/21 | 18:00 | 35 | 22 | 59 | 30.23 | WNW | 0 | 0.00 |
| 8 | 12/21 | 17:00 | 37 | 21 | 53 | 30.22 | WNW | 0 | 0.00 |
| 9 | 12/21 | 16:00 | 39 | 21 | 49 | 30.22 | WNW | 3 | 0.00 |
| 10 | 12/21 | 15:00 | 40 | 21 | 48 | 30.21 | WNW | 5 | 0.00 |
| 11 | 12/21 | 14:00 | 40 | 22 | 49 | 30.21 | WNW | 4 | 0.00 |
| 12 | 12/21 | 13:00 | 40 | 22 | 49 | 30.20 | WNW | 6 | 0.00 |
| 13 | 12/21 | 12:00 | 38 | 22 | 53 | 30.23 | WNW | 5 | 0.00 |
| 14 | 12/21 | 11:00 | 34 | 22 | 62 | 30.25 | WNW | 1 | 0.00 |
| 15 | 12/21 | 10:00 | 26 | 23 | 91 | 30.26 | WNW | 0 | 0.00 |
| 16 | 12/21 | 09:00 | 21 | 20 | 97 | 30.24 | WNW | 0 | 0.00 |
| 17 | 12/21 | 08:00 | 18 | 17 | 97 | 30.23 | WNW | 0 | 0.00 |
| 18 | 12/21 | 07:00 | 18 | 17 | 96 | 30.22 | WNW | 0 | 0.00 |
| 19 | 12/21 | 06:00 | 18 | 16 | 95 | 30.20 | WNW | 0 | 0.00 |
| 20 | 12/21 | 05:00 | 19 | 18 | 96 | 30.20 | WNW | 0 | 0.00 |
| 21 | 12/21 | 04:00 | 19 | 17 | 92 | 30.18 | WNW | 0 | 0.00 |
| 22 | 12/21 | 03:00 | 19 | 16 | 91 | 30.19 | WNW | 0 | 0.00 |
| 23 | 12/21 | 02:00 | 21 | 17 | 86 | 30.19 | WNW | 0 | 0.00 |
| 24 | 12/21 | 01:00 | 21 | 17 | 86 | 30.18 | WNW | 0 | 0.00 |